sensor_id;sensor_type;location;lat;lon;timestamp;P1;durP1;ratioP1;P2;durP2;ratioP2
64212;SDS011;50532;52.058;4.472;2024-02-14T00:02:07;1.00;;;0.90;;
64212;SDS011;50532;52.058;4.472;2024-02-14T00:04:33;1.10;;;0.90;;
64212;SDS011;50532;52.058;4.472;2024-02-14T00:06:58;0.98;;;0.90;;
64212;SDS011;50532;52.058;4.472;2024-02-14T00:09:24;2.42;;;1.00;;
64212;SDS011;50532;52.058;4.472;2024-02-14T00:11:49;3.40;;;1.20;;
64212;SDS011;50532;52.058;4.472;2024-02-14T00:14:14;2.22;;;0.95;;
64212;SDS011;50532;52.058;4.472;2024-02-14T00:16:40;1.13;;;1.02;;
64212;SDS011;50532;52.058;4.472;2024-02-14T00:19:06;2.25;;;1.10;;
64212;SDS011;50532;52.058;4.472;2024-02-14T00:21:32;2.05;;;1.20;;
64212;SDS011;50532;52.058;4.472;2024-02-14T00:23:59;1.48;;;1.35;;
64212;SDS011;50532;52.058;4.472;2024-02-14T00:26:24;1.58;;;1.13;;
64212;SDS011;50532;52.058;4.472;2024-02-14T00:28:50;2.85;;;1.13;;
64212;SDS011;50532;52.058;4.472;2024-02-14T00:31:15;1.27;;;1.17;;
64212;SDS011;50532;52.058;4.472;2024-02-14T00:33:41;1.15;;;1.05;;
64212;SDS011;50532;52.058;4.472;2024-02-14T00:36:06;2.20;;;1.20;;
64212;SDS011;50532;52.058;4.472;2024-02-14T00:38:32;2.30;;;1.10;;
64212;SDS011;50532;52.058;4.472;2024-02-14T00:40:58;1.25;;;1.15;;
64212;SDS011;50532;52.058;4.472;2024-02-14T00:43:23;1.98;;;1.30;;
64212;SDS011;50532;52.058;4.472;2024-02-14T00:45:48;1.30;;;1.20;;
64212;SDS011;50532;52.058;4.472;2024-02-14T00:48:14;1.20;;;1.10;;
64212;SDS011;50532;52.058;4.472;2024-02-14T00:50:39;3.03;;;1.20;;
64212;SDS011;50532;52.058;4.472;2024-02-14T00:53:04;1.08;;;0.98;;
64212;SDS011;50532;52.058;4.472;2024-02-14T00:55:30;2.22;;;1.08;;
64212;SDS011;50532;52.058;4.472;2024-02-14T00:57:55;1.10;;;1.00;;
64212;SDS011;50532;52.058;4.472;2024-02-14T01:00:20;1.60;;;1.10;;
64212;SDS011;50532;52.058;4.472;2024-02-14T01:02:46;2.13;;;1.13;;
64212;SDS011;50532;52.058;4.472;2024-02-14T01:05:11;1.75;;;0.95;;
64212;SDS011;50532;52.058;4.472;2024-02-14T01:07:37;1.33;;;1.08;;
64212;SDS011;50532;52.058;4.472;2024-02-14T01:10:02;1.95;;;1.38;;
64212;SDS011;50532;52.058;4.472;2024-02-14T01:12:28;2.75;;;1.60;;
64212;SDS011;50532;52.058;4.472;2024-02-14T01:14:54;1.67;;;1.50;;
64212;SDS011;50532;52.058;4.472;2024-02-14T01:17:20;1.33;;;1.20;;
64212;SDS011;50532;52.058;4.472;2024-02-14T01:19:45;2.22;;;1.48;;
64212;SDS011;50532;52.058;4.472;2024-02-14T01:22:11;1.58;;;1.13;;
64212;SDS011;50532;52.058;4.472;2024-02-14T01:24:36;2.05;;;1.30;;
64212;SDS011;50532;52.058;4.472;2024-02-14T01:27:02;1.35;;;1.20;;
64212;SDS011;50532;52.058;4.472;2024-02-14T01:29:28;1.65;;;1.25;;
64212;SDS011;50532;52.058;4.472;2024-02-14T01:31:53;1.27;;;1.17;;
64212;SDS011;50532;52.058;4.472;2024-02-14T01:34:19;2.40;;;1.27;;
64212;SDS011;50532;52.058;4.472;2024-02-14T01:36:45;0.98;;;0.93;;
64212;SDS011;50532;52.058;4.472;2024-02-14T01:39:13;1.42;;;1.17;;
64212;SDS011;50532;52.058;4.472;2024-02-14T01:41:38;3.47;;;1.27;;
64212;SDS011;50532;52.058;4.472;2024-02-14T01:44:04;2.70;;;1.42;;
64212;SDS011;50532;52.058;4.472;2024-02-14T01:46:29;2.40;;;1.40;;
64212;SDS011;50532;52.058;4.472;2024-02-14T01:48:55;2.13;;;1.42;;
64212;SDS011;50532;52.058;4.472;2024-02-14T01:51:20;1.58;;;1.20;;
64212;SDS011;50532;52.058;4.472;2024-02-14T01:53:49;2.65;;;1.50;;
64212;SDS011;50532;52.058;4.472;2024-02-14T01:56:14;2.42;;;1.40;;
64212;SDS011;50532;52.058;4.472;2024-02-14T01:58:41;2.17;;;1.30;;
64212;SDS011;50532;52.058;4.472;2024-02-14T02:01:07;2.05;;;1.00;;
64212;SDS011;50532;52.058;4.472;2024-02-14T02:03:35;2.95;;;1.08;;
64212;SDS011;50532;52.058;4.472;2024-02-14T02:06:02;1.30;;;1.15;;
64212;SDS011;50532;52.058;4.472;2024-02-14T02:08:29;2.00;;;1.33;;
64212;SDS011;50532;52.058;4.472;2024-02-14T02:10:55;1.42;;;1.00;;
64212;SDS011;50532;52.058;4.472;2024-02-14T02:13:20;1.15;;;1.02;;
64212;SDS011;50532;52.058;4.472;2024-02-14T02:15:46;1.95;;;1.25;;
64212;SDS011;50532;52.058;4.472;2024-02-14T02:18:11;1.83;;;0.95;;
64212;SDS011;50532;52.058;4.472;2024-02-14T02:20:38;2.38;;;1.20;;
64212;SDS011;50532;52.058;4.472;2024-02-14T02:23:03;2.30;;;1.17;;
64212;SDS011;50532;52.058;4.472;2024-02-14T02:25:30;3.15;;;1.20;;
64212;SDS011;50532;52.058;4.472;2024-02-14T02:27:55;1.50;;;1.27;;
64212;SDS011;50532;52.058;4.472;2024-02-14T02:30:23;1.92;;;1.13;;
64212;SDS011;50532;52.058;4.472;2024-02-14T02:32:49;1.13;;;1.02;;
64212;SDS011;50532;52.058;4.472;2024-02-14T02:35:18;2.90;;;1.20;;
64212;SDS011;50532;52.058;4.472;2024-02-14T02:37:46;2.92;;;0.93;;
64212;SDS011;50532;52.058;4.472;2024-02-14T02:40:15;3.03;;;1.30;;
64212;SDS011;50532;52.058;4.472;2024-02-14T02:42:42;2.50;;;1.10;;
64212;SDS011;50532;52.058;4.472;2024-02-14T02:45:08;1.77;;;1.05;;
64212;SDS011;50532;52.058;4.472;2024-02-14T02:47:33;2.05;;;1.23;;
64212;SDS011;50532;52.058;4.472;2024-02-14T02:49:59;2.05;;;1.10;;
64212;SDS011;50532;52.058;4.472;2024-02-14T02:52:28;2.30;;;1.00;;
64212;SDS011;50532;52.058;4.472;2024-02-14T02:54:56;3.78;;;1.17;;
64212;SDS011;50532;52.058;4.472;2024-02-14T02:57:21;2.67;;;1.20;;
64212;SDS011;50532;52.058;4.472;2024-02-14T02:59:46;3.45;;;1.25;;
64212;SDS011;50532;52.058;4.472;2024-02-14T03:02:13;5.43;;;1.52;;
64212;SDS011;50532;52.058;4.472;2024-02-14T03:04:39;4.03;;;1.50;;
64212;SDS011;50532;52.058;4.472;2024-02-14T03:07:05;3.55;;;1.20;;
64212;SDS011;50532;52.058;4.472;2024-02-14T03:09:33;5.50;;;1.70;;
64212;SDS011;50532;52.058;4.472;2024-02-14T03:12:02;3.63;;;1.10;;
64212;SDS011;50532;52.058;4.472;2024-02-14T03:14:31;2.80;;;1.27;;
64212;SDS011;50532;52.058;4.472;2024-02-14T03:16:58;4.13;;;1.60;;
64212;SDS011;50532;52.058;4.472;2024-02-14T03:19:24;6.18;;;1.70;;
64212;SDS011;50532;52.058;4.472;2024-02-14T03:21:51;2.50;;;1.08;;
64212;SDS011;50532;52.058;4.472;2024-02-14T03:24:17;5.07;;;1.33;;
64212;SDS011;50532;52.058;4.472;2024-02-14T03:26:42;4.47;;;1.30;;
64212;SDS011;50532;52.058;4.472;2024-02-14T03:29:08;5.63;;;1.15;;
64212;SDS011;50532;52.058;4.472;2024-02-14T03:31:34;8.02;;;1.58;;
64212;SDS011;50532;52.058;4.472;2024-02-14T03:33:59;2.83;;;1.25;;
64212;SDS011;50532;52.058;4.472;2024-02-14T03:36:25;5.53;;;1.08;;
64212;SDS011;50532;52.058;4.472;2024-02-14T03:38:53;3.75;;;1.60;;
64212;SDS011;50532;52.058;4.472;2024-02-14T03:41:18;5.53;;;1.35;;
64212;SDS011;50532;52.058;4.472;2024-02-14T03:43:44;7.35;;;1.60;;
64212;SDS011;50532;52.058;4.472;2024-02-14T03:46:09;5.85;;;1.30;;
64212;SDS011;50532;52.058;4.472;2024-02-14T03:48:37;4.43;;;1.45;;
64212;SDS011;50532;52.058;4.472;2024-02-14T03:51:02;5.28;;;1.83;;
64212;SDS011;50532;52.058;4.472;2024-02-14T03:53:28;7.07;;;1.30;;
64212;SDS011;50532;52.058;4.472;2024-02-14T03:55:53;4.78;;;1.70;;
64212;SDS011;50532;52.058;4.472;2024-02-14T03:58:19;3.90;;;1.60;;
64212;SDS011;50532;52.058;4.472;2024-02-14T04:00:49;9.82;;;1.67;;
64212;SDS011;50532;52.058;4.472;2024-02-14T04:03:15;4.20;;;1.13;;
64212;SDS011;50532;52.058;4.472;2024-02-14T04:05:41;5.25;;;1.45;;
64212;SDS011;50532;52.058;4.472;2024-02-14T04:08:07;6.07;;;1.92;;
64212;SDS011;50532;52.058;4.472;2024-02-14T04:10:34;6.07;;;1.95;;
64212;SDS011;50532;52.058;4.472;2024-02-14T04:13:05;3.97;;;1.70;;
64212;SDS011;50532;52.058;4.472;2024-02-14T04:15:31;5.00;;;1.45;;
64212;SDS011;50532;52.058;4.472;2024-02-14T04:17:57;5.60;;;1.60;;
64212;SDS011;50532;52.058;4.472;2024-02-14T04:20:23;5.68;;;1.65;;
64212;SDS011;50532;52.058;4.472;2024-02-14T04:22:48;6.22;;;1.42;;
64212;SDS011;50532;52.058;4.472;2024-02-14T04:25:14;6.38;;;1.70;;
64212;SDS011;50532;52.058;4.472;2024-02-14T04:27:40;6.00;;;1.45;;
64212;SDS011;50532;52.058;4.472;2024-02-14T04:30:05;7.32;;;1.50;;
64212;SDS011;50532;52.058;4.472;2024-02-14T04:32:31;4.75;;;1.38;;
64212;SDS011;50532;52.058;4.472;2024-02-14T04:34:56;7.10;;;1.52;;
64212;SDS011;50532;52.058;4.472;2024-02-14T04:37:23;7.93;;;1.45;;
64212;SDS011;50532;52.058;4.472;2024-02-14T04:39:48;5.07;;;1.58;;
64212;SDS011;50532;52.058;4.472;2024-02-14T04:42:14;6.75;;;1.90;;
64212;SDS011;50532;52.058;4.472;2024-02-14T04:44:39;5.50;;;1.52;;
64212;SDS011;50532;52.058;4.472;2024-02-14T04:47:05;4.88;;;1.45;;
64212;SDS011;50532;52.058;4.472;2024-02-14T04:49:30;4.68;;;1.33;;
64212;SDS011;50532;52.058;4.472;2024-02-14T04:51:55;6.25;;;1.48;;
64212;SDS011;50532;52.058;4.472;2024-02-14T04:54:21;6.00;;;1.85;;
64212;SDS011;50532;52.058;4.472;2024-02-14T04:56:46;4.35;;;1.45;;
64212;SDS011;50532;52.058;4.472;2024-02-14T04:59:12;7.40;;;1.83;;
64212;SDS011;50532;52.058;4.472;2024-02-14T05:01:37;6.97;;;1.30;;
64212;SDS011;50532;52.058;4.472;2024-02-14T05:04:05;5.60;;;1.83;;
64212;SDS011;50532;52.058;4.472;2024-02-14T05:06:33;3.63;;;1.10;;
64212;SDS011;50532;52.058;4.472;2024-02-14T05:08:58;6.82;;;1.63;;
64212;SDS011;50532;52.058;4.472;2024-02-14T05:11:24;2.90;;;1.20;;
64212;SDS011;50532;52.058;4.472;2024-02-14T05:13:49;6.40;;;1.75;;
64212;SDS011;50532;52.058;4.472;2024-02-14T05:16:18;6.15;;;1.75;;
64212;SDS011;50532;52.058;4.472;2024-02-14T05:18:44;5.05;;;1.52;;
64212;SDS011;50532;52.058;4.472;2024-02-14T05:21:10;4.28;;;1.50;;
64212;SDS011;50532;52.058;4.472;2024-02-14T05:23:35;4.32;;;1.40;;
64212;SDS011;50532;52.058;4.472;2024-02-14T05:26:02;5.60;;;1.50;;
64212;SDS011;50532;52.058;4.472;2024-02-14T05:28:30;2.97;;;1.05;;
64212;SDS011;50532;52.058;4.472;2024-02-14T05:30:56;6.50;;;1.50;;
64212;SDS011;50532;52.058;4.472;2024-02-14T05:33:22;4.07;;;1.27;;
64212;SDS011;50532;52.058;4.472;2024-02-14T05:35:48;3.85;;;1.33;;
64212;SDS011;50532;52.058;4.472;2024-02-14T05:38:14;2.45;;;1.25;;
64212;SDS011;50532;52.058;4.472;2024-02-14T05:40:39;2.70;;;1.27;;
64212;SDS011;50532;52.058;4.472;2024-02-14T05:43:05;2.63;;;1.13;;
64212;SDS011;50532;52.058;4.472;2024-02-14T05:45:32;6.05;;;1.50;;
64212;SDS011;50532;52.058;4.472;2024-02-14T05:47:57;4.30;;;1.20;;
64212;SDS011;50532;52.058;4.472;2024-02-14T05:50:23;3.53;;;1.42;;
64212;SDS011;50532;52.058;4.472;2024-02-14T05:52:49;3.45;;;1.42;;
64212;SDS011;50532;52.058;4.472;2024-02-14T05:55:14;6.07;;;1.50;;
64212;SDS011;50532;52.058;4.472;2024-02-14T05:57:40;4.25;;;1.17;;
64212;SDS011;50532;52.058;4.472;2024-02-14T06:00:05;7.20;;;1.30;;
64212;SDS011;50532;52.058;4.472;2024-02-14T06:02:32;3.10;;;1.25;;
64212;SDS011;50532;52.058;4.472;2024-02-14T06:04:57;5.30;;;1.23;;
64212;SDS011;50532;52.058;4.472;2024-02-14T06:07:23;6.15;;;1.67;;
64212;SDS011;50532;52.058;4.472;2024-02-14T06:09:48;6.93;;;1.38;;
64212;SDS011;50532;52.058;4.472;2024-02-14T06:12:13;5.45;;;1.73;;
64212;SDS011;50532;52.058;4.472;2024-02-14T06:14:39;4.50;;;1.40;;
64212;SDS011;50532;52.058;4.472;2024-02-14T06:17:04;4.47;;;1.50;;
64212;SDS011;50532;52.058;4.472;2024-02-14T06:19:29;5.88;;;1.65;;
64212;SDS011;50532;52.058;4.472;2024-02-14T06:21:55;6.63;;;1.92;;
64212;SDS011;50532;52.058;4.472;2024-02-14T06:24:21;3.83;;;1.42;;
64212;SDS011;50532;52.058;4.472;2024-02-14T06:26:46;4.15;;;1.58;;
64212;SDS011;50532;52.058;4.472;2024-02-14T06:29:12;2.97;;;1.30;;
64212;SDS011;50532;52.058;4.472;2024-02-14T06:31:37;8.05;;;1.65;;
64212;SDS011;50532;52.058;4.472;2024-02-14T06:34:03;2.95;;;1.25;;
64212;SDS011;50532;52.058;4.472;2024-02-14T06:36:28;3.42;;;1.27;;
64212;SDS011;50532;52.058;4.472;2024-02-14T06:38:53;6.78;;;1.80;;
64212;SDS011;50532;52.058;4.472;2024-02-14T06:41:19;4.38;;;1.63;;
64212;SDS011;50532;52.058;4.472;2024-02-14T06:43:45;3.75;;;1.45;;
64212;SDS011;50532;52.058;4.472;2024-02-14T06:46:11;3.58;;;1.55;;
64212;SDS011;50532;52.058;4.472;2024-02-14T06:48:36;2.88;;;1.15;;
64212;SDS011;50532;52.058;4.472;2024-02-14T06:51:01;4.60;;;1.50;;
64212;SDS011;50532;52.058;4.472;2024-02-14T06:53:27;3.97;;;1.50;;
64212;SDS011;50532;52.058;4.472;2024-02-14T06:55:52;4.90;;;1.52;;
64212;SDS011;50532;52.058;4.472;2024-02-14T06:58:18;5.90;;;1.55;;
64212;SDS011;50532;52.058;4.472;2024-02-14T07:00:43;5.15;;;1.42;;
64212;SDS011;50532;52.058;4.472;2024-02-14T07:03:09;3.08;;;1.20;;
64212;SDS011;50532;52.058;4.472;2024-02-14T07:05:34;3.30;;;1.35;;
64212;SDS011;50532;52.058;4.472;2024-02-14T07:08:00;3.65;;;1.35;;
64212;SDS011;50532;52.058;4.472;2024-02-14T07:10:26;2.95;;;1.50;;
64212;SDS011;50532;52.058;4.472;2024-02-14T07:12:51;2.50;;;1.30;;
64212;SDS011;50532;52.058;4.472;2024-02-14T07:15:16;2.33;;;1.20;;
64212;SDS011;50532;52.058;4.472;2024-02-14T07:17:42;4.75;;;1.70;;
64212;SDS011;50532;52.058;4.472;2024-02-14T07:20:07;5.68;;;1.60;;
64212;SDS011;50532;52.058;4.472;2024-02-14T07:22:34;3.58;;;1.25;;
64212;SDS011;50532;52.058;4.472;2024-02-14T07:25:00;4.75;;;1.45;;
64212;SDS011;50532;52.058;4.472;2024-02-14T07:27:25;3.33;;;1.38;;
64212;SDS011;50532;52.058;4.472;2024-02-14T07:29:51;2.78;;;1.20;;
64212;SDS011;50532;52.058;4.472;2024-02-14T07:32:17;5.57;;;1.30;;
64212;SDS011;50532;52.058;4.472;2024-02-14T07:34:42;2.80;;;1.10;;
64212;SDS011;50532;52.058;4.472;2024-02-14T07:37:08;2.80;;;1.38;;
64212;SDS011;50532;52.058;4.472;2024-02-14T07:39:33;3.60;;;1.20;;
64212;SDS011;50532;52.058;4.472;2024-02-14T07:42:02;3.55;;;1.40;;
64212;SDS011;50532;52.058;4.472;2024-02-14T07:44:28;5.20;;;1.40;;
64212;SDS011;50532;52.058;4.472;2024-02-14T07:46:53;2.67;;;0.90;;
64212;SDS011;50532;52.058;4.472;2024-02-14T07:49:19;2.33;;;1.15;;
64212;SDS011;50532;52.058;4.472;2024-02-14T07:51:44;1.15;;;1.02;;
64212;SDS011;50532;52.058;4.472;2024-02-14T07:54:10;2.05;;;1.10;;
64212;SDS011;50532;52.058;4.472;2024-02-14T07:56:36;2.05;;;1.10;;
64212;SDS011;50532;52.058;4.472;2024-02-14T07:59:01;2.10;;;1.45;;
64212;SDS011;50532;52.058;4.472;2024-02-14T08:01:27;3.47;;;1.15;;
64212;SDS011;50532;52.058;4.472;2024-02-14T08:03:53;1.77;;;1.20;;
64212;SDS011;50532;52.058;4.472;2024-02-14T08:06:19;2.95;;;1.40;;
64212;SDS011;50532;52.058;4.472;2024-02-14T08:08:45;3.28;;;1.40;;
64212;SDS011;50532;52.058;4.472;2024-02-14T08:11:10;3.78;;;1.58;;
64212;SDS011;50532;52.058;4.472;2024-02-14T08:13:35;4.53;;;0.98;;
64212;SDS011;50532;52.058;4.472;2024-02-14T08:16:02;1.45;;;0.90;;
64212;SDS011;50532;52.058;4.472;2024-02-14T08:18:27;2.95;;;1.15;;
64212;SDS011;50532;52.058;4.472;2024-02-14T08:20:53;3.33;;;1.17;;
64212;SDS011;50532;52.058;4.472;2024-02-14T08:23:18;1.60;;;0.98;;
64212;SDS011;50532;52.058;4.472;2024-02-14T08:25:45;1.95;;;0.80;;
64212;SDS011;50532;52.058;4.472;2024-02-14T08:28:11;0.88;;;0.70;;
64212;SDS011;50532;52.058;4.472;2024-02-14T08:30:36;1.40;;;1.00;;
64212;SDS011;50532;52.058;4.472;2024-02-14T08:33:03;2.70;;;0.98;;
64212;SDS011;50532;52.058;4.472;2024-02-14T08:35:28;2.20;;;1.02;;
64212;SDS011;50532;52.058;4.472;2024-02-14T08:37:54;2.25;;;0.90;;
64212;SDS011;50532;52.058;4.472;2024-02-14T08:40:19;2.00;;;1.13;;
64212;SDS011;50532;52.058;4.472;2024-02-14T08:42:45;2.00;;;1.25;;
64212;SDS011;50532;52.058;4.472;2024-02-14T08:45:11;1.83;;;1.20;;
64212;SDS011;50532;52.058;4.472;2024-02-14T08:47:36;1.10;;;1.00;;
64212;SDS011;50532;52.058;4.472;2024-02-14T08:50:05;2.33;;;1.20;;
64212;SDS011;50532;52.058;4.472;2024-02-14T08:52:31;1.65;;;1.00;;
64212;SDS011;50532;52.058;4.472;2024-02-14T08:54:57;4.70;;;1.00;;
64212;SDS011;50532;52.058;4.472;2024-02-14T08:57:22;1.75;;;1.08;;
64212;SDS011;50532;52.058;4.472;2024-02-14T08:59:48;1.17;;;1.08;;
64212;SDS011;50532;52.058;4.472;2024-02-14T09:02:14;1.70;;;1.20;;
64212;SDS011;50532;52.058;4.472;2024-02-14T09:04:40;2.33;;;1.30;;
64212;SDS011;50532;52.058;4.472;2024-02-14T09:07:06;1.52;;;1.20;;
64212;SDS011;50532;52.058;4.472;2024-02-14T09:09:32;1.60;;;1.30;;
64212;SDS011;50532;52.058;4.472;2024-02-14T09:11:58;1.77;;;1.10;;
64212;SDS011;50532;52.058;4.472;2024-02-14T09:14:27;1.30;;;1.17;;
64212;SDS011;50532;52.058;4.472;2024-02-14T09:16:53;1.33;;;1.23;;
64212;SDS011;50532;52.058;4.472;2024-02-14T09:19:18;1.77;;;1.25;;
64212;SDS011;50532;52.058;4.472;2024-02-14T09:21:43;1.38;;;1.27;;
64212;SDS011;50532;52.058;4.472;2024-02-14T09:24:09;1.77;;;1.10;;
64212;SDS011;50532;52.058;4.472;2024-02-14T09:26:34;0.98;;;0.98;;
64212;SDS011;50532;52.058;4.472;2024-02-14T09:29:00;1.48;;;1.02;;
64212;SDS011;50532;52.058;4.472;2024-02-14T09:31:25;1.20;;;1.10;;
64212;SDS011;50532;52.058;4.472;2024-02-14T09:33:51;1.38;;;1.20;;
64212;SDS011;50532;52.058;4.472;2024-02-14T09:36:18;1.92;;;1.20;;
64212;SDS011;50532;52.058;4.472;2024-02-14T09:38:44;1.42;;;1.20;;
64212;SDS011;50532;52.058;4.472;2024-02-14T09:43:44;1.10;;;0.90;;
64212;SDS011;50532;52.058;4.472;2024-02-14T09:46:12;1.73;;;1.33;;
64212;SDS011;50532;52.058;4.472;2024-02-14T09:48:38;2.30;;;1.17;;
64212;SDS011;50532;52.058;4.472;2024-02-14T09:51:07;1.38;;;1.25;;
64212;SDS011;50532;52.058;4.472;2024-02-14T09:53:32;1.77;;;1.35;;
64212;SDS011;50532;52.058;4.472;2024-02-14T09:55:57;1.30;;;0.95;;
64212;SDS011;50532;52.058;4.472;2024-02-14T09:58:24;3.35;;;0.90;;
64212;SDS011;50532;52.058;4.472;2024-02-14T10:01:00;11.52;;;3.28;;
64212;SDS011;50532;52.058;4.472;2024-02-14T10:03:25;16.30;;;1.73;;
64212;SDS011;50532;52.058;4.472;2024-02-14T10:05:51;14.73;;;1.40;;
64212;SDS011;50532;52.058;4.472;2024-02-14T10:08:18;13.15;;;1.58;;
64212;SDS011;50532;52.058;4.472;2024-02-14T10:10:43;10.05;;;1.13;;
64212;SDS011;50532;52.058;4.472;2024-02-14T10:13:09;3.83;;;0.90;;
64212;SDS011;50532;52.058;4.472;2024-02-14T10:15:34;2.03;;;0.90;;
64212;SDS011;50532;52.058;4.472;2024-02-14T10:18:01;3.03;;;0.90;;
64212;SDS011;50532;52.058;4.472;2024-02-14T10:20:28;2.97;;;1.05;;
64212;SDS011;50532;52.058;4.472;2024-02-14T10:23:04;3.97;;;0.85;;
64212;SDS011;50532;52.058;4.472;2024-02-14T10:25:29;0.70;;;0.70;;
64212;SDS011;50532;52.058;4.472;2024-02-14T10:27:56;0.98;;;0.90;;
64212;SDS011;50532;52.058;4.472;2024-02-14T10:30:22;0.80;;;0.80;;
64212;SDS011;50532;52.058;4.472;2024-02-14T10:32:47;0.60;;;0.60;;
64212;SDS011;50532;52.058;4.472;2024-02-14T10:35:14;4.63;;;1.10;;
64212;SDS011;50532;52.058;4.472;2024-02-14T10:37:40;3.55;;;0.90;;
64212;SDS011;50532;52.058;4.472;2024-02-14T10:40:06;61.00;;;2.60;;
64212;SDS011;50532;52.058;4.472;2024-02-14T10:42:32;5.35;;;1.33;;
64212;SDS011;50532;52.058;4.472;2024-02-14T10:44:57;0.70;;;0.70;;
64212;SDS011;50532;52.058;4.472;2024-02-14T10:47:24;1.02;;;0.60;;
64212;SDS011;50532;52.058;4.472;2024-02-14T10:49:51;0.88;;;0.68;;
64212;SDS011;50532;52.058;4.472;2024-02-14T10:52:17;1.10;;;0.80;;
64212;SDS011;50532;52.058;4.472;2024-02-14T10:54:43;1.48;;;0.80;;
64212;SDS011;50532;52.058;4.472;2024-02-14T10:57:14;0.75;;;0.75;;
64212;SDS011;50532;52.058;4.472;2024-02-14T10:59:41;2.60;;;0.75;;
64212;SDS011;50532;52.058;4.472;2024-02-14T11:02:09;1.05;;;0.85;;
64212;SDS011;50532;52.058;4.472;2024-02-14T11:04:35;6.22;;;2.75;;
64212;SDS011;50532;52.058;4.472;2024-02-14T11:07:00;0.55;;;0.55;;
64212;SDS011;50532;52.058;4.472;2024-02-14T11:09:37;1.90;;;0.70;;
64212;SDS011;50532;52.058;4.472;2024-02-14T11:12:03;3.97;;;0.80;;
64212;SDS011;50532;52.058;4.472;2024-02-14T11:14:32;2.85;;;0.80;;
64212;SDS011;50532;52.058;4.472;2024-02-14T11:16:59;2.97;;;0.88;;
64212;SDS011;50532;52.058;4.472;2024-02-14T11:19:30;2.47;;;0.80;;
64212;SDS011;50532;52.058;4.472;2024-02-14T11:21:58;0.90;;;0.68;;
64212;SDS011;50532;52.058;4.472;2024-02-14T11:24:26;4.35;;;0.80;;
64212;SDS011;50532;52.058;4.472;2024-02-14T11:26:54;1.63;;;0.70;;
64212;SDS011;50532;52.058;4.472;2024-02-14T11:29:20;0.60;;;0.60;;
64212;SDS011;50532;52.058;4.472;2024-02-14T11:31:46;1.38;;;0.75;;
64212;SDS011;50532;52.058;4.472;2024-02-14T11:34:13;1.00;;;0.70;;
64212;SDS011;50532;52.058;4.472;2024-02-14T11:36:39;0.68;;;0.68;;
64212;SDS011;50532;52.058;4.472;2024-02-14T11:39:06;0.60;;;0.60;;
64212;SDS011;50532;52.058;4.472;2024-02-14T11:41:32;0.65;;;0.65;;
64212;SDS011;50532;52.058;4.472;2024-02-14T11:44:02;2.30;;;0.80;;
64212;SDS011;50532;52.058;4.472;2024-02-14T11:46:35;0.52;;;0.52;;
64212;SDS011;50532;52.058;4.472;2024-02-14T11:49:01;1.88;;;0.82;;
64212;SDS011;50532;52.058;4.472;2024-02-14T11:51:28;1.90;;;0.77;;
64212;SDS011;50532;52.058;4.472;2024-02-14T11:53:55;3.50;;;0.85;;
64212;SDS011;50532;52.058;4.472;2024-02-14T11:56:22;0.60;;;0.60;;
64212;SDS011;50532;52.058;4.472;2024-02-14T11:58:49;0.77;;;0.63;;
64212;SDS011;50532;52.058;4.472;2024-02-14T12:01:16;1.17;;;0.80;;
64212;SDS011;50532;52.058;4.472;2024-02-14T12:03:42;0.90;;;0.70;;
64212;SDS011;50532;52.058;4.472;2024-02-14T12:06:09;0.98;;;0.77;;
64212;SDS011;50532;52.058;4.472;2024-02-14T12:08:34;0.63;;;0.45;;
64212;SDS011;50532;52.058;4.472;2024-02-14T12:11:00;0.90;;;0.70;;
64212;SDS011;50532;52.058;4.472;2024-02-14T12:13:26;2.33;;;0.75;;
64212;SDS011;50532;52.058;4.472;2024-02-14T12:15:51;1.20;;;0.80;;
64212;SDS011;50532;52.058;4.472;2024-02-14T12:18:18;1.10;;;0.80;;
64212;SDS011;50532;52.058;4.472;2024-02-14T12:20:44;2.05;;;0.82;;
64212;SDS011;50532;52.058;4.472;2024-02-14T12:23:18;2.53;;;0.80;;
64212;SDS011;50532;52.058;4.472;2024-02-14T12:25:44;1.52;;;0.70;;
64212;SDS011;50532;52.058;4.472;2024-02-14T12:28:20;0.80;;;0.80;;
64212;SDS011;50532;52.058;4.472;2024-02-14T12:33:21;1.80;;;0.80;;
64212;SDS011;50532;52.058;4.472;2024-02-14T12:35:47;0.82;;;0.60;;
64212;SDS011;50532;52.058;4.472;2024-02-14T12:38:13;0.70;;;0.70;;
64212;SDS011;50532;52.058;4.472;2024-02-14T12:40:39;0.85;;;0.50;;
64212;SDS011;50532;52.058;4.472;2024-02-14T12:43:09;1.02;;;0.65;;
64212;SDS011;50532;52.058;4.472;2024-02-14T12:45:35;1.05;;;0.70;;
64212;SDS011;50532;52.058;4.472;2024-02-14T12:48:05;1.52;;;0.70;;
64212;SDS011;50532;52.058;4.472;2024-02-14T12:50:31;1.55;;;0.80;;
64212;SDS011;50532;52.058;4.472;2024-02-14T12:52:57;0.70;;;0.70;;
64212;SDS011;50532;52.058;4.472;2024-02-14T12:55:23;1.25;;;0.43;;
64212;SDS011;50532;52.058;4.472;2024-02-14T12:57:50;0.95;;;0.73;;
64212;SDS011;50532;52.058;4.472;2024-02-14T13:00:16;0.43;;;0.40;;
64212;SDS011;50532;52.058;4.472;2024-02-14T13:02:42;0.75;;;0.40;;
64212;SDS011;50532;52.058;4.472;2024-02-14T13:05:07;0.85;;;0.70;;
64212;SDS011;50532;52.058;4.472;2024-02-14T13:07:36;1.05;;;0.60;;
64212;SDS011;50532;52.058;4.472;2024-02-14T13:10:02;0.77;;;0.63;;
64212;SDS011;50532;52.058;4.472;2024-02-14T13:12:28;0.75;;;0.75;;
64212;SDS011;50532;52.058;4.472;2024-02-14T13:14:54;0.68;;;0.60;;
64212;SDS011;50532;52.058;4.472;2024-02-14T13:17:19;0.85;;;0.52;;
64212;SDS011;50532;52.058;4.472;2024-02-14T13:19:44;0.50;;;0.50;;
64212;SDS011;50532;52.058;4.472;2024-02-14T13:22:10;0.98;;;0.50;;
64212;SDS011;50532;52.058;4.472;2024-02-14T13:24:36;0.60;;;0.50;;
64212;SDS011;50532;52.058;4.472;2024-02-14T13:27:01;1.58;;;0.63;;
64212;SDS011;50532;52.058;4.472;2024-02-14T13:29:27;0.52;;;0.52;;
64212;SDS011;50532;52.058;4.472;2024-02-14T13:31:53;1.17;;;0.55;;
64212;SDS011;50532;52.058;4.472;2024-02-14T13:34:18;0.63;;;0.63;;
64212;SDS011;50532;52.058;4.472;2024-02-14T13:36:45;2.10;;;0.55;;
64212;SDS011;50532;52.058;4.472;2024-02-14T13:39:11;1.13;;;0.50;;
64212;SDS011;50532;52.058;4.472;2024-02-14T13:41:42;0.60;;;0.43;;
64212;SDS011;50532;52.058;4.472;2024-02-14T13:44:09;0.60;;;0.60;;
64212;SDS011;50532;52.058;4.472;2024-02-14T13:46:35;0.30;;;0.30;;
64212;SDS011;50532;52.058;4.472;2024-02-14T13:49:01;0.80;;;0.50;;
64212;SDS011;50532;52.058;4.472;2024-02-14T13:51:26;2.58;;;0.35;;
64212;SDS011;50532;52.058;4.472;2024-02-14T13:53:54;0.40;;;0.40;;
64212;SDS011;50532;52.058;4.472;2024-02-14T13:56:20;0.40;;;0.40;;
64212;SDS011;50532;52.058;4.472;2024-02-14T13:58:47;0.30;;;0.25;;
64212;SDS011;50532;52.058;4.472;2024-02-14T14:01:14;0.35;;;0.35;;
64212;SDS011;50532;52.058;4.472;2024-02-14T14:03:40;1.25;;;0.57;;
64212;SDS011;50532;52.058;4.472;2024-02-14T14:06:06;0.80;;;0.30;;
64212;SDS011;50532;52.058;4.472;2024-02-14T14:08:33;0.90;;;0.40;;
64212;SDS011;50532;52.058;4.472;2024-02-14T14:10:59;0.30;;;0.30;;
64212;SDS011;50532;52.058;4.472;2024-02-14T14:13:24;0.45;;;0.30;;
64212;SDS011;50532;52.058;4.472;2024-02-14T14:15:54;0.38;;;0.38;;
64212;SDS011;50532;52.058;4.472;2024-02-14T14:18:20;0.93;;;0.50;;
64212;SDS011;50532;52.058;4.472;2024-02-14T14:20:45;0.35;;;0.25;;
64212;SDS011;50532;52.058;4.472;2024-02-14T14:23:11;0.13;;;0.13;;
64212;SDS011;50532;52.058;4.472;2024-02-14T14:25:36;0.50;;;0.50;;
64212;SDS011;50532;52.058;4.472;2024-02-14T14:28:02;0.65;;;0.25;;
64212;SDS011;50532;52.058;4.472;2024-02-14T14:30:28;0.45;;;0.30;;
64212;SDS011;50532;52.058;4.472;2024-02-14T14:32:53;0.40;;;0.40;;
64212;SDS011;50532;52.058;4.472;2024-02-14T14:35:18;0.52;;;0.30;;
64212;SDS011;50532;52.058;4.472;2024-02-14T14:37:44;0.22;;;0.22;;
64212;SDS011;50532;52.058;4.472;2024-02-14T14:40:10;0.50;;;0.40;;
64212;SDS011;50532;52.058;4.472;2024-02-14T14:42:36;1.02;;;0.28;;
64212;SDS011;50532;52.058;4.472;2024-02-14T14:45:01;0.60;;;0.45;;
64212;SDS011;50532;52.058;4.472;2024-02-14T14:47:28;1.50;;;0.68;;